createdAt,value
2022-09-24T00:01:16.011Z,13.20
2022-09-24T00:03:35.989Z,13.10
2022-09-24T00:05:40.452Z,13.00
2022-09-24T00:07:43.259Z,13.00
2022-09-24T00:09:46.155Z,13.10
2022-09-24T00:11:49.570Z,13.00
2022-09-24T00:14:15.890Z,13.00
2022-09-24T00:16:17.556Z,13.00
2022-09-24T00:18:20.892Z,13.00
2022-09-24T00:20:23.509Z,13.00
2022-09-24T00:22:25.990Z,13.00
2022-09-24T00:24:46.425Z,12.90
2022-09-24T00:26:51.807Z,12.90
2022-09-24T00:28:54.326Z,12.90
2022-09-24T00:30:57.740Z,12.90
2022-09-24T00:33:00.268Z,13.00
2022-09-24T00:35:03.096Z,13.00
2022-09-24T00:37:05.590Z,13.00
2022-09-24T00:39:08.104Z,13.00
2022-09-24T00:41:10.680Z,13.00
2022-09-24T00:43:23.106Z,13.00
2022-09-24T00:45:26.904Z,12.90
2022-09-24T00:47:31.163Z,12.90
2022-09-24T00:49:33.671Z,12.90
2022-09-24T00:51:36.486Z,12.90
2022-09-24T00:53:38.994Z,12.90
2022-09-24T00:55:42.606Z,12.90
2022-09-24T00:57:46.242Z,13.00
2022-09-24T00:59:48.697Z,13.00
2022-09-24T01:01:52.228Z,12.90
2022-09-24T01:03:56.633Z,12.90
2022-09-24T01:05:59.874Z,12.80
2022-09-24T01:08:02.633Z,12.90
2022-09-24T01:10:05.691Z,12.90
2022-09-24T01:12:09.988Z,12.90
2022-09-24T01:14:26.247Z,12.90
2022-09-24T01:16:30.774Z,12.80
2022-09-24T01:21:02.251Z,12.90
2022-09-24T01:23:27.850Z,12.90
2022-09-24T01:25:32.358Z,12.80
2022-09-24T01:27:43.391Z,12.80
2022-09-24T01:29:49.055Z,12.90
2022-09-24T01:31:53.469Z,12.90
2022-09-24T01:33:57.307Z,13.00
2022-09-24T01:36:02.959Z,12.90
2022-09-24T01:38:07.275Z,13.00
2022-09-24T01:40:11.452Z,13.00
2022-09-24T01:42:14.367Z,13.00
2022-09-24T01:44:18.094Z,13.00
2022-09-24T01:46:22.185Z,13.00
2022-09-24T01:48:24.752Z,13.10
2022-09-24T01:50:28.741Z,13.10
2022-09-24T01:52:33.907Z,13.10
2022-09-24T01:54:40.287Z,13.10
2022-09-24T01:56:45.280Z,13.00
2022-09-24T01:58:52.347Z,13.00
2022-09-24T02:00:57.750Z,13.10
2022-09-24T02:03:03.278Z,13.10
2022-09-24T02:05:07.699Z,13.10
2022-09-24T02:07:13.227Z,13.10
2022-09-24T02:09:32.416Z,13.00
2022-09-24T02:11:36.602Z,13.00
2022-09-24T02:13:41.659Z,13.10
2022-09-24T02:15:46.288Z,13.10
2022-09-24T02:17:53.312Z,13.10
2022-09-24T02:19:56.411Z,13.20
2022-09-24T02:21:59.961Z,13.10
2022-09-24T02:24:05.440Z,13.10
2022-09-24T02:26:10.230Z,13.10
2022-09-24T02:28:14.371Z,13.10
2022-09-24T02:30:17.974Z,13.10
2022-09-24T02:32:23.222Z,13.00
2022-09-24T02:34:28.955Z,13.10
2022-09-24T02:36:32.955Z,13.10
2022-09-24T02:40:52.872Z,13.20
2022-09-24T02:42:55.375Z,13.20
2022-09-24T02:44:58.816Z,13.20
2022-09-24T02:47:01.874Z,13.20
2022-09-24T02:49:04.340Z,13.30
2022-09-24T02:51:07.014Z,13.30
2022-09-24T02:53:09.674Z,13.30
2022-09-24T02:55:12.567Z,13.40
2022-09-24T02:57:15.113Z,13.30
2022-09-24T02:59:18.203Z,13.40
2022-09-24T03:01:21.818Z,13.40
2022-09-24T03:03:24.797Z,13.40
2022-09-24T03:05:27.265Z,13.40
2022-09-24T03:07:29.868Z,13.40
2022-09-24T03:09:32.456Z,13.40
2022-09-24T03:11:35.163Z,13.40
2022-09-24T03:13:37.639Z,13.50
2022-09-24T03:15:40.416Z,13.40
2022-09-24T03:17:42.935Z,13.40
2022-09-24T03:19:45.618Z,13.40
2022-09-24T03:21:48.124Z,13.50
2022-09-24T03:23:51.044Z,13.50
2022-09-24T03:25:53.695Z,13.50
2022-09-24T03:27:56.178Z,13.50
2022-09-24T03:30:16.704Z,13.50
2022-09-24T03:32:19.590Z,13.50
2022-09-24T03:34:22.387Z,13.50
2022-09-24T03:36:25.626Z,13.50
2022-09-24T03:38:28.651Z,13.50
2022-09-24T03:40:31.419Z,13.40
2022-09-24T03:42:34.353Z,13.30
2022-09-24T03:44:36.858Z,13.40
2022-09-24T03:46:39.420Z,13.40
2022-09-24T03:51:00.593Z,13.40
2022-09-24T03:53:03.472Z,13.50
2022-09-24T03:55:06.988Z,13.50
2022-09-24T03:57:09.588Z,13.50
2022-09-24T03:59:12.514Z,13.50
2022-09-24T04:01:17.706Z,13.50
2022-09-24T04:03:20.943Z,13.50
2022-09-24T04:05:23.710Z,13.50
2022-09-24T04:07:26.216Z,13.50
2022-09-24T04:09:28.781Z,13.50
2022-09-24T04:11:33.167Z,13.50
2022-09-24T04:13:35.640Z,13.50
2022-09-24T04:15:38.264Z,13.30
2022-09-24T04:17:40.763Z,13.30
2022-09-24T04:19:43.639Z,13.40
2022-09-24T04:21:46.211Z,13.30
2022-09-24T04:23:48.737Z,13.10
2022-09-24T04:25:51.257Z,13.00
2022-09-24T04:27:54.408Z,13.10
2022-09-24T04:29:56.883Z,13.10
2022-09-24T04:31:59.458Z,13.10
2022-09-24T04:34:02.099Z,13.10
2022-09-24T04:36:04.820Z,13.10
2022-09-24T04:38:07.439Z,13.10
2022-09-24T04:40:11.996Z,13.10
2022-09-24T04:42:16.994Z,13.10
2022-09-24T04:44:19.466Z,13.10
2022-09-24T04:46:21.996Z,13.10
2022-09-24T04:48:24.571Z,12.90
2022-09-24T04:50:28.558Z,12.90
2022-09-24T04:52:32.767Z,12.70
2022-09-24T04:54:35.263Z,12.70
2022-09-24T04:56:37.894Z,12.70
2022-09-24T04:58:40.724Z,12.60
2022-09-24T05:00:43.759Z,12.50
2022-09-24T05:02:46.740Z,12.50
2022-09-24T05:04:49.624Z,12.60
2022-09-24T05:06:52.143Z,12.60
2022-09-24T05:08:54.681Z,12.70
2022-09-24T05:10:57.207Z,12.80
2022-09-24T05:13:00.165Z,12.80
2022-09-24T05:15:02.696Z,12.90
2022-09-24T05:17:05.315Z,12.90
2022-09-24T05:19:07.841Z,13.00
2022-09-24T05:21:10.554Z,12.90
2022-09-24T05:23:13.050Z,13.00
2022-09-24T05:25:16.247Z,13.00
2022-09-24T05:27:19.143Z,13.10
2022-09-24T05:29:21.977Z,13.00
2022-09-24T05:31:24.507Z,12.90
2022-09-24T05:33:27.093Z,12.90
2022-09-24T05:35:29.556Z,12.90
2022-09-24T05:37:32.315Z,12.90
2022-09-24T05:39:34.811Z,12.90
2022-09-24T05:41:37.288Z,12.90
2022-09-24T05:43:40.680Z,12.90
2022-09-24T05:45:44.119Z,12.90
2022-09-24T05:47:46.915Z,12.90
2022-09-24T05:52:04.427Z,12.90
2022-09-24T05:54:06.980Z,12.80
2022-09-24T05:56:10.134Z,12.80
2022-09-24T05:58:13.095Z,12.80
2022-09-24T06:00:15.851Z,12.60
2022-09-24T06:02:18.592Z,12.50
2022-09-24T06:04:21.259Z,12.50
2022-09-24T06:06:24.103Z,12.60
2022-09-24T06:08:26.602Z,12.70
2022-09-24T06:10:29.090Z,12.60
2022-09-24T06:12:34.319Z,12.70
2022-09-24T06:14:36.792Z,12.80
2022-09-24T06:16:39.323Z,12.80
2022-09-24T06:18:43.646Z,12.90
2022-09-24T06:20:47.201Z,13.00
2022-09-24T06:22:49.987Z,13.00
2022-09-24T06:24:52.639Z,13.00
2022-09-24T06:26:55.115Z,13.00
2022-09-24T06:29:02.133Z,12.80
2022-09-24T06:31:02.238Z,12.70
2022-09-24T06:33:06.074Z,12.80
2022-09-24T06:35:09.015Z,12.70
2022-09-24T06:37:11.534Z,12.70
2022-09-24T06:39:14.118Z,12.60
2022-09-24T06:41:16.634Z,12.60
2022-09-24T06:43:19.296Z,12.60
2022-09-24T06:45:21.997Z,12.70
2022-09-24T06:47:24.544Z,12.80
2022-09-24T06:49:33.639Z,12.80
2022-09-24T06:51:33.511Z,12.80
2022-09-24T06:53:36.085Z,12.90
2022-09-24T06:55:38.924Z,12.90
2022-09-24T06:57:41.434Z,12.90
2022-09-24T06:59:44.142Z,13.00
2022-09-24T07:01:46.684Z,12.90
2022-09-24T07:03:49.291Z,12.90
2022-09-24T07:05:51.811Z,13.00
2022-09-24T07:07:54.317Z,13.00
2022-09-24T07:09:56.787Z,13.00
2022-09-24T07:12:00.981Z,13.00
2022-09-24T07:14:03.682Z,13.00
2022-09-24T07:16:06.701Z,13.10
2022-09-24T07:18:09.644Z,13.20
2022-09-24T07:20:12.120Z,13.20
2022-09-24T07:22:14.598Z,13.20
2022-09-24T07:24:17.112Z,13.30
2022-09-24T07:26:19.747Z,13.30
2022-09-24T07:28:22.250Z,13.40
2022-09-24T07:30:24.767Z,13.50
2022-09-24T07:32:29.992Z,13.50
2022-09-24T07:34:32.143Z,13.50
2022-09-24T07:36:34.622Z,13.60
2022-09-24T07:38:42.551Z,13.60
2022-09-24T07:40:45.366Z,13.60
2022-09-24T07:42:48.167Z,13.70
2022-09-24T07:44:50.757Z,13.80
2022-09-24T07:46:53.335Z,14.00
2022-09-24T07:48:56.178Z,14.10
2022-09-24T07:50:58.666Z,14.10
2022-09-24T07:53:01.290Z,14.20
2022-09-24T07:55:06.018Z,14.10
2022-09-24T07:57:13.780Z,14.20
2022-09-24T07:59:16.675Z,14.20
2022-09-24T08:03:34.617Z,14.30
2022-09-24T08:05:39.666Z,14.40
2022-09-24T08:07:42.750Z,14.50
2022-09-24T08:09:45.586Z,14.60
2022-09-24T08:11:49.823Z,14.60
2022-09-24T08:13:52.572Z,14.70
2022-09-24T08:15:58.506Z,14.70
2022-09-24T08:18:01.788Z,14.80
2022-09-24T08:20:04.861Z,14.80
2022-09-24T08:22:07.959Z,14.90
2022-09-24T08:24:10.466Z,14.90
2022-09-24T08:26:13.529Z,14.90
2022-09-24T08:28:16.540Z,15.10
2022-09-24T08:30:19.823Z,15.20
2022-09-24T08:32:22.576Z,15.20
2022-09-24T08:34:25.065Z,15.20
2022-09-24T08:36:28.516Z,15.20
2022-09-24T08:38:31.248Z,15.30
2022-09-24T08:40:35.766Z,15.30
2022-09-24T08:42:40.379Z,15.50
2022-09-24T08:45:01.645Z,15.40
2022-09-24T08:47:24.308Z,15.40
2022-09-24T08:49:29.321Z,15.40
2022-09-24T08:51:35.400Z,15.50
2022-09-24T08:53:41.679Z,15.60
2022-09-24T08:55:46.813Z,15.60
2022-09-24T08:57:52.174Z,15.70
2022-09-24T08:59:54.765Z,15.70
2022-09-24T09:02:01.376Z,15.80
2022-09-24T09:04:05.969Z,15.90
2022-09-24T09:06:12.512Z,15.90
2022-09-24T09:08:44.947Z,16.00
2022-09-24T09:10:26.496Z,15.90
2022-09-24T09:12:31.652Z,15.90
2022-09-24T09:14:41.131Z,16.00
2022-09-24T09:16:43.755Z,15.90
2022-09-24T09:18:48.139Z,16.00
2022-09-24T09:20:50.967Z,16.00
2022-09-24T09:22:56.358Z,16.00
2022-09-24T09:25:03.941Z,16.10
2022-09-24T09:27:32.971Z,16.10
2022-09-24T09:29:52.017Z,16.20
2022-09-24T09:32:23.062Z,16.10
2022-09-24T09:34:34.882Z,16.00
2022-09-24T09:36:44.668Z,16.00
2022-09-24T09:38:49.191Z,16.10
2022-09-24T09:40:55.331Z,16.10
2022-09-24T09:43:01.217Z,16.10
2022-09-24T09:45:05.824Z,16.20
2022-09-24T09:47:14.765Z,16.30
2022-09-24T09:49:17.846Z,16.10
2022-09-24T09:51:23.351Z,16.20
2022-09-24T09:53:26.362Z,16.20
2022-09-24T09:55:30.753Z,16.30
2022-09-24T09:57:34.929Z,16.30
2022-09-24T09:59:38.241Z,16.20
2022-09-24T10:01:41.961Z,16.20
2022-09-24T10:03:48.602Z,16.20
2022-09-24T10:05:55.924Z,16.30
2022-09-24T10:07:58.591Z,16.30
2022-09-24T10:10:03.725Z,16.40
2022-09-24T10:12:12.074Z,16.40
2022-09-24T10:14:17.697Z,16.50
2022-09-24T10:16:20.163Z,16.50
2022-09-24T10:18:26.723Z,16.40
2022-09-24T10:20:30.739Z,16.30
2022-09-24T10:22:33.315Z,16.30
2022-09-24T10:24:37.061Z,16.40
2022-09-24T10:26:44.855Z,16.30
2022-09-24T10:29:05.355Z,16.30
2022-09-24T10:31:09.943Z,16.40
2022-09-24T10:33:12.643Z,16.50
2022-09-24T10:35:23.835Z,16.60
2022-09-24T10:37:27.149Z,16.50
2022-09-24T10:39:30.579Z,16.50
2022-09-24T10:41:33.315Z,16.50
2022-09-24T10:43:36.612Z,16.70
2022-09-24T10:45:43.466Z,16.70
2022-09-24T10:47:48.096Z,16.70
2022-09-24T10:49:55.073Z,16.70
2022-09-24T10:51:59.345Z,16.70
2022-09-24T10:54:09.252Z,16.70
2022-09-24T10:56:14.996Z,16.80
2022-09-24T10:58:26.403Z,16.80
2022-09-24T11:00:32.098Z,16.80
2022-09-24T11:02:43.568Z,16.80
2022-09-24T11:04:50.026Z,16.80
2022-09-24T11:06:57.071Z,16.80
2022-09-24T11:09:04.223Z,16.80
2022-09-24T11:11:09.615Z,16.70
2022-09-24T11:13:15.324Z,16.80
2022-09-24T11:15:24.063Z,16.70
2022-09-24T11:17:30.179Z,16.70
2022-09-24T11:19:37.953Z,16.70
2022-09-24T11:21:45.747Z,16.80
2022-09-24T11:23:55.052Z,16.80
2022-09-24T11:26:00.406Z,16.80
2022-09-24T11:28:25.080Z,16.90
2022-09-24T11:30:29.543Z,16.90
2022-09-24T11:32:34.107Z,16.90
2022-09-24T11:34:43.879Z,16.90
2022-09-24T11:36:51.182Z,16.90
2022-09-24T11:38:59.341Z,16.90
2022-09-24T11:43:33.251Z,17.00
2022-09-24T11:45:43.709Z,17.10
2022-09-24T11:47:51.298Z,17.20
2022-09-24T11:49:58.274Z,17.10
2022-09-24T11:52:02.780Z,17.10
2022-09-24T11:54:07.088Z,17.10
2022-09-24T11:56:13.356Z,17.10
2022-09-24T11:58:17.506Z,17.10
2022-09-24T12:00:21.010Z,17.30
2022-09-24T12:02:25.527Z,17.20
2022-09-24T12:04:30.498Z,17.20
2022-09-24T12:06:35.206Z,17.10
2022-09-24T12:08:39.555Z,17.10
2022-09-24T12:10:45.558Z,17.10
2022-09-24T12:12:49.447Z,17.10
2022-09-24T12:14:54.018Z,16.90
2022-09-24T12:16:59.369Z,17.00
2022-09-24T12:19:03.731Z,17.00
2022-09-24T12:21:08.533Z,17.10
2022-09-24T12:23:12.527Z,17.00
2022-09-24T12:25:15.476Z,17.00
2022-09-24T12:27:19.722Z,16.90
2022-09-24T12:29:53.268Z,16.80
2022-09-24T12:32:15.188Z,16.80
2022-09-24T12:34:20.954Z,16.70
2022-09-24T12:36:25.278Z,16.80
2022-09-24T12:38:31.209Z,16.80
2022-09-24T12:40:38.867Z,16.80
2022-09-24T12:42:43.223Z,16.80
2022-09-24T12:44:47.261Z,16.80
2022-09-24T12:46:52.395Z,16.80
2022-09-24T12:48:55.777Z,16.80
2022-09-24T12:50:59.624Z,16.80
2022-09-24T12:53:02.193Z,16.70
2022-09-24T12:55:05.821Z,16.80
2022-09-24T12:57:10.534Z,16.80
2022-09-24T12:59:24.656Z,16.60
2022-09-24T13:01:29.668Z,16.50
2022-09-24T13:03:33.713Z,16.60
2022-09-24T13:05:46.853Z,16.70
2022-09-24T13:07:56.391Z,16.70
2022-09-24T13:10:00.683Z,16.70
2022-09-24T13:12:08.669Z,16.60
2022-09-24T13:14:21.038Z,16.60
2022-09-24T13:16:23.583Z,16.60
2022-09-24T13:18:26.014Z,16.60
2022-09-24T13:20:29.234Z,16.50
2022-09-24T13:22:33.936Z,16.40
2022-09-24T13:24:46.522Z,16.30
2022-09-24T13:26:49.249Z,16.20
2022-09-24T13:28:54.394Z,16.10
2022-09-24T13:30:59.386Z,16.10
2022-09-24T13:33:03.175Z,16.10
2022-09-24T13:35:07.089Z,16.00
2022-09-24T13:37:12.378Z,16.00
2022-09-24T13:39:17.031Z,15.90
2022-09-24T13:43:41.177Z,15.80
2022-09-24T13:45:44.911Z,15.80
2022-09-24T13:47:48.334Z,15.70
2022-09-24T13:50:01.132Z,15.60
2022-09-24T13:52:08.657Z,15.70
2022-09-24T13:54:13.797Z,15.70
2022-09-24T13:56:17.743Z,15.60
2022-09-24T13:58:34.032Z,15.60
2022-09-24T14:02:54.725Z,15.70
2022-09-24T14:04:58.742Z,15.70
2022-09-24T14:07:02.047Z,15.70
2022-09-24T14:09:16.368Z,15.80
2022-09-24T14:11:19.646Z,15.90
2022-09-24T14:13:22.714Z,15.80
2022-09-24T14:15:25.590Z,15.80
2022-09-24T14:17:28.430Z,15.80
2022-09-24T14:19:32.829Z,15.90
2022-09-24T14:21:36.638Z,15.90
2022-09-24T14:23:40.098Z,16.00
2022-09-24T14:25:43.345Z,16.00
2022-09-24T14:27:47.518Z,15.90
2022-09-24T14:29:51.009Z,16.00
2022-09-24T14:31:55.413Z,16.00
2022-09-24T14:33:58.521Z,16.10
2022-09-24T14:36:02.253Z,16.20
2022-09-24T14:38:07.946Z,16.20
2022-09-24T14:40:14.194Z,16.30
2022-09-24T14:42:20.030Z,16.30
2022-09-24T14:44:23.332Z,16.30
2022-09-24T14:46:27.731Z,16.20
2022-09-24T14:48:30.976Z,16.20
2022-09-24T14:50:35.440Z,16.20
2022-09-24T14:52:39.420Z,16.20
2022-09-24T14:54:41.897Z,16.30
2022-09-24T14:56:44.525Z,16.20
2022-09-24T14:58:47.786Z,16.30
2022-09-24T15:00:53.617Z,16.30
2022-09-24T15:02:58.271Z,16.20
2022-09-24T15:05:06.211Z,16.30
2022-09-24T15:07:14.087Z,16.20
2022-09-24T15:09:18.850Z,16.20
2022-09-24T15:11:24.902Z,16.20
2022-09-24T15:13:29.221Z,16.20
2022-09-24T15:15:31.722Z,16.20
2022-09-24T15:17:35.153Z,16.20
2022-09-24T15:19:39.426Z,16.20
2022-09-24T15:21:42.162Z,16.10
2022-09-24T15:23:44.638Z,16.10
2022-09-24T15:25:47.133Z,16.10
2022-09-24T15:27:51.566Z,16.10
2022-09-24T15:29:56.086Z,16.10
2022-09-24T15:31:58.886Z,16.10
2022-09-24T15:34:01.490Z,16.00
2022-09-24T15:36:04.127Z,16.00
2022-09-24T15:38:09.348Z,16.00
2022-09-24T15:40:17.677Z,16.00
2022-09-24T15:42:21.117Z,15.80
2022-09-24T15:44:28.431Z,15.70
2022-09-24T15:46:28.868Z,15.70
2022-09-24T15:48:31.418Z,15.70
2022-09-24T15:50:33.926Z,15.60
2022-09-24T15:52:38.224Z,15.60
2022-09-24T15:54:40.745Z,15.60
2022-09-24T15:56:44.319Z,15.70
2022-09-24T15:58:47.041Z,15.60
2022-09-24T16:00:49.688Z,15.60
2022-09-24T16:02:53.171Z,15.60
2022-09-24T16:05:00.132Z,15.60
2022-09-24T16:07:00.953Z,15.60
2022-09-24T16:09:03.581Z,15.50
2022-09-24T16:11:09.035Z,15.50
2022-09-24T16:13:10.895Z,15.50
2022-09-24T16:15:14.186Z,15.40
2022-09-24T16:17:16.710Z,15.30
2022-09-24T16:19:19.277Z,15.30
2022-09-24T16:21:21.834Z,15.20
2022-09-24T16:23:24.306Z,15.20
2022-09-24T16:25:27.550Z,15.20
2022-09-24T16:27:30.835Z,15.20
2022-09-24T16:29:33.356Z,15.30
2022-09-24T16:31:35.866Z,15.30
2022-09-24T16:33:38.810Z,15.30
2022-09-24T16:35:41.328Z,15.30
2022-09-24T16:37:43.830Z,15.30
2022-09-24T16:39:47.019Z,15.30
2022-09-24T16:41:49.922Z,15.30
2022-09-24T16:43:56.133Z,15.30
2022-09-24T16:46:02.878Z,15.30
2022-09-24T16:48:05.467Z,15.30
2022-09-24T16:50:08.903Z,15.20
2022-09-24T16:52:11.602Z,15.30
2022-09-24T16:54:14.122Z,15.20
2022-09-24T16:56:17.558Z,15.30
2022-09-24T16:58:20.026Z,15.30
2022-09-24T17:00:22.743Z,15.30
2022-09-24T17:02:25.548Z,15.30
2022-09-24T17:04:28.051Z,15.30
2022-09-24T17:06:31.079Z,15.30
2022-09-24T17:08:52.801Z,15.30
2022-09-24T17:11:00.259Z,15.30
2022-09-24T17:15:15.022Z,15.20
2022-09-24T17:17:17.636Z,15.20
2022-09-24T17:28:57.588Z,15.10
2022-09-24T17:31:00.262Z,15.10
2022-09-24T17:35:18.457Z,15.00
2022-09-24T17:37:21.031Z,15.00
2022-09-24T17:39:23.888Z,15.00
2022-09-24T17:41:27.410Z,15.00
2022-09-24T17:43:31.655Z,15.00
2022-09-24T17:45:41.660Z,15.00
2022-09-24T17:47:56.407Z,15.00
2022-09-24T17:52:22.237Z,14.90
2022-09-24T17:54:26.154Z,14.90
2022-09-24T17:56:29.272Z,14.90
2022-09-24T17:58:32.195Z,15.00
2022-09-24T18:00:34.686Z,15.00
2022-09-24T18:02:37.217Z,14.90
2022-09-24T18:04:39.993Z,14.90
2022-09-24T18:06:43.449Z,14.80
2022-09-24T18:08:46.227Z,14.80
2022-09-24T18:10:50.614Z,14.80
2022-09-24T18:12:54.346Z,14.80
2022-09-24T18:14:56.931Z,14.80
2022-09-24T18:17:00.501Z,14.80
2022-09-24T18:19:03.376Z,14.80
2022-09-24T18:21:07.598Z,14.70
2022-09-24T18:23:10.182Z,14.70
2022-09-24T18:25:13.308Z,14.70
2022-09-24T18:27:15.777Z,14.70
2022-09-24T18:29:18.602Z,14.70
2022-09-24T18:31:22.210Z,14.60
2022-09-24T18:33:24.857Z,14.60
2022-09-24T18:35:27.579Z,14.60
2022-09-24T18:37:30.556Z,14.60
2022-09-24T18:39:33.206Z,14.60
2022-09-24T18:41:36.384Z,14.60
2022-09-24T18:43:39.066Z,14.60
2022-09-24T18:45:41.730Z,14.60
2022-09-24T18:47:44.271Z,14.60
2022-09-24T18:49:46.882Z,14.60
2022-09-24T18:51:50.345Z,14.60
2022-09-24T18:53:53.504Z,14.60
2022-09-24T18:55:56.226Z,14.60
2022-09-24T18:57:58.714Z,14.50
2022-09-24T19:00:01.736Z,14.40
2022-09-24T19:02:04.794Z,14.40
2022-09-24T19:04:10.053Z,14.50
2022-09-24T19:06:12.980Z,14.40
2022-09-24T19:08:15.941Z,14.40
2022-09-24T19:10:18.438Z,14.50
2022-09-24T19:12:20.899Z,14.50
2022-09-24T19:14:24.371Z,14.50
2022-09-24T19:16:26.861Z,14.50
2022-09-24T19:18:29.387Z,14.50
2022-09-24T19:20:32.189Z,14.50
2022-09-24T19:22:34.893Z,14.40
2022-09-24T19:24:37.374Z,14.40
2022-09-24T19:26:39.911Z,14.40
2022-09-24T19:28:42.747Z,14.50
2022-09-24T19:30:47.095Z,14.40
2022-09-24T19:32:49.845Z,14.40
2022-09-24T19:34:52.673Z,14.40
2022-09-24T19:36:57.013Z,14.40
2022-09-24T19:39:00.890Z,14.40
2022-09-24T19:41:05.186Z,14.40
2022-09-24T19:43:07.830Z,14.40
2022-09-24T19:45:11.029Z,14.40
2022-09-24T19:49:32.786Z,14.30
2022-09-24T19:51:36.934Z,14.30
2022-09-24T19:53:39.408Z,14.30
2022-09-24T19:55:42.746Z,14.30
2022-09-24T19:57:45.253Z,14.30
2022-09-24T19:59:47.994Z,14.30
2022-09-24T20:01:51.748Z,14.30
2022-09-24T20:03:54.667Z,14.20
2022-09-24T20:05:57.128Z,14.20
2022-09-24T20:07:59.847Z,14.20
2022-09-24T20:10:02.489Z,14.30
2022-09-24T20:12:05.260Z,14.30
2022-09-24T20:14:10.308Z,14.20
2022-09-24T20:16:14.842Z,14.20
2022-09-24T20:18:17.553Z,14.10
2022-09-24T20:20:20.182Z,14.20
2022-09-24T20:22:22.834Z,14.10
2022-09-24T20:24:25.469Z,14.00
2022-09-24T20:26:45.814Z,14.00
2022-09-24T20:28:48.321Z,14.00
2022-09-24T20:30:51.295Z,14.00
2022-09-24T20:32:53.839Z,14.00
2022-09-24T20:34:56.302Z,14.00
2022-09-24T20:37:00.875Z,14.00
2022-09-24T20:39:03.689Z,14.00
2022-09-24T20:41:07.242Z,14.00
2022-09-24T20:43:10.048Z,14.00
2022-09-24T20:45:12.779Z,14.00
2022-09-24T20:47:15.231Z,14.00
2022-09-24T20:49:21.361Z,14.00
2022-09-24T20:51:23.977Z,14.00
2022-09-24T20:53:28.378Z,14.00
2022-09-24T20:55:30.934Z,14.00
2022-09-24T20:57:33.562Z,14.00
2022-09-24T20:59:36.234Z,14.00
2022-09-24T21:01:38.885Z,14.00
2022-09-24T21:03:44.948Z,13.90
2022-09-24T21:05:46.366Z,14.00
2022-09-24T21:07:48.847Z,13.90
2022-09-24T21:09:51.583Z,14.00
2022-09-24T21:11:54.203Z,13.90
2022-09-24T21:13:59.166Z,13.90
2022-09-24T21:16:03.840Z,13.90
2022-09-24T21:18:22.221Z,13.90
2022-09-24T21:20:11.930Z,13.90
2022-09-24T21:22:14.809Z,13.90
2022-09-24T21:24:17.356Z,13.90
2022-09-24T21:26:20.881Z,13.90
2022-09-24T21:28:23.690Z,13.90
2022-09-24T21:30:27.241Z,13.90
2022-09-24T21:32:30.966Z,13.90
2022-09-24T21:34:34.794Z,13.90
2022-09-24T21:36:43.670Z,13.90
2022-09-24T21:38:42.413Z,13.90
2022-09-24T21:40:46.873Z,13.90
2022-09-24T21:42:51.503Z,13.90
2022-09-24T21:44:54.237Z,13.90
2022-09-24T21:46:56.949Z,13.90
2022-09-24T21:48:59.621Z,13.80
2022-09-24T21:51:03.372Z,13.80
2022-09-24T21:53:05.956Z,13.80
2022-09-24T21:55:10.852Z,13.80
2022-09-24T21:57:13.469Z,13.80
2022-09-24T21:59:34.321Z,13.80
2022-09-24T22:01:36.951Z,13.70
2022-09-24T22:03:39.591Z,13.80
2022-09-24T22:05:43.363Z,13.70
2022-09-24T22:07:46.032Z,13.70
2022-09-24T22:09:49.407Z,13.80
2022-09-24T22:11:52.123Z,13.80
2022-09-24T22:13:54.814Z,13.80
2022-09-24T22:15:57.550Z,13.80
2022-09-24T22:18:00.634Z,13.70
2022-09-24T22:20:03.495Z,13.70
2022-09-24T22:22:06.103Z,13.70
2022-09-24T22:24:08.571Z,13.70
2022-09-24T22:28:28.509Z,13.70
2022-09-24T22:30:31.291Z,13.70
2022-09-24T22:32:33.819Z,13.70
2022-09-24T22:34:54.105Z,13.70
2022-09-24T22:36:56.830Z,13.70
2022-09-24T22:39:00.483Z,13.70
2022-09-24T22:41:03.592Z,13.60
2022-09-24T22:43:06.288Z,13.60
2022-09-24T22:45:10.840Z,13.60
2022-09-24T22:47:13.302Z,13.60
2022-09-24T22:49:16.040Z,13.60
2022-09-24T22:51:18.693Z,13.60
2022-09-24T22:53:21.814Z,13.60
2022-09-24T22:55:24.434Z,13.60
2022-09-24T22:57:26.994Z,13.60
2022-09-24T22:59:29.453Z,13.50
2022-09-24T23:01:33.486Z,13.60
2022-09-24T23:03:36.206Z,13.50
2022-09-24T23:05:38.698Z,13.50
2022-09-24T23:07:42.492Z,13.50
2022-09-24T23:09:45.114Z,13.50
2022-09-24T23:11:47.602Z,13.50
2022-09-24T23:13:52.144Z,13.40
2022-09-24T23:15:54.969Z,13.50
2022-09-24T23:17:57.666Z,13.50
2022-09-24T23:20:00.404Z,13.40
2022-09-24T23:22:03.042Z,13.40
2022-09-24T23:24:07.300Z,13.40
2022-09-24T23:26:16.010Z,13.40
2022-09-24T23:28:15.539Z,13.50
2022-09-24T23:30:19.422Z,13.40
2022-09-24T23:32:22.630Z,13.50
2022-09-24T23:34:25.366Z,13.40
2022-09-24T23:36:29.362Z,13.40
2022-09-24T23:38:33.265Z,13.40
2022-09-24T23:40:36.819Z,13.40
2022-09-24T23:42:41.109Z,13.40
2022-09-24T23:44:44.840Z,13.40
2022-09-24T23:46:47.730Z,13.40
2022-09-24T23:48:51.823Z,13.40
2022-09-24T23:50:55.160Z,13.40
2022-09-24T23:52:58.733Z,13.40
2022-09-24T23:55:01.956Z,13.40
2022-09-24T23:57:06.061Z,13.40
2022-09-24T23:59:08.968Z,13.40
